Terminal Aerodrome Forecast
Issued by NWS Jackson, KY

Home | Current Version | Previous Version | Text Only | Print | Product List | Glossary On
Versions: 1 2 3 4 5 6 7 8 9 10 11 12 13 14 15 16 17 18 19 20 21 22 23 24 25 26 27
000
FTUS43 KJKL 020759 AAB
TAFJKL
TAF AMD
KJKL 020759Z 0208/0306 00000KT P6SM VCSH BKN005 OVC015
     FM020900 VRB03KT 5SM BR VCSH OVC010
     FM021400 VRB03KT P6SM VCTS SCT015 BKN030CB
     FM030200 00000KT 3SM BR VCSH BKN015=

USA.gov is the U.S. government's official web portal to all federal, state and local government web resources and services.